createdAt,value
2017-12-20T00:00:28.828Z,5.64
2017-12-20T00:01:09.474Z,5.68
2017-12-20T00:01:50.033Z,5.57
2017-12-20T00:02:30.604Z,5.68
2017-12-20T00:03:11.205Z,5.64
2017-12-20T00:03:51.801Z,5.61
2017-12-20T00:04:32.372Z,5.64
2017-12-20T00:05:12.942Z,5.66
2017-12-20T00:05:53.591Z,5.62
2017-12-20T00:06:34.152Z,5.65
2017-12-20T00:07:14.743Z,5.61
2017-12-20T00:07:55.355Z,5.68
2017-12-20T00:08:35.944Z,5.64
2017-12-20T00:09:16.562Z,5.62
2017-12-20T00:09:57.143Z,5.59
2017-12-20T00:10:37.731Z,5.64
2017-12-20T00:11:18.327Z,5.51
2017-12-20T00:11:58.942Z,5.59
2017-12-20T00:12:39.487Z,5.57
2017-12-20T00:13:20.079Z,5.51
2017-12-20T00:14:00.668Z,5.5
2017-12-20T00:14:41.253Z,5.53
2017-12-20T00:15:21.851Z,5.53
2017-12-20T00:16:02.440Z,5.54
2017-12-20T00:16:43.016Z,5.53
2017-12-20T00:17:23.618Z,5.56
2017-12-20T00:18:04.217Z,5.53
2017-12-20T00:18:44.821Z,5.51
2017-12-20T00:19:25.406Z,5.53
2017-12-20T00:20:05.991Z,5.54
2017-12-20T00:20:46.601Z,5.51
2017-12-20T00:21:27.192Z,5.47
2017-12-20T00:22:07.763Z,5.51
2017-12-20T00:22:48.331Z,5.53
2017-12-20T00:23:28.904Z,5.56
2017-12-20T00:24:09.474Z,5.5
2017-12-20T00:24:50.054Z,5.53
2017-12-20T00:25:30.627Z,5.47
2017-12-20T00:26:11.199Z,5.53
2017-12-20T00:26:51.781Z,5.56
2017-12-20T00:27:32.365Z,5.53
2017-12-20T00:28:12.946Z,5.56
2017-12-20T00:28:53.499Z,5.5
2017-12-20T00:29:34.074Z,5.48
2017-12-20T00:30:14.647Z,5.46
2017-12-20T00:30:55.239Z,5.46
2017-12-20T00:31:35.856Z,5.44
2017-12-20T00:32:16.427Z,5.47
2017-12-20T00:32:56.994Z,5.43
2017-12-20T00:33:37.580Z,5.44
2017-12-20T00:34:18.157Z,5.44
2017-12-20T00:34:58.842Z,5.48
2017-12-20T00:35:39.435Z,5.43
2017-12-20T00:36:20.023Z,5.48
2017-12-20T00:37:00.605Z,5.43
2017-12-20T00:37:41.216Z,5.46
2017-12-20T00:38:21.785Z,5.44
2017-12-20T00:39:02.369Z,5.43
2017-12-20T00:39:42.928Z,5.38
2017-12-20T00:40:23.495Z,5.41
2017-12-20T00:41:04.094Z,5.54
2017-12-20T00:41:44.679Z,5.43
2017-12-20T00:42:25.281Z,5.5
2017-12-20T00:43:05.872Z,5.56
2017-12-20T00:43:46.479Z,5.43
2017-12-20T00:44:27.051Z,5.43
2017-12-20T00:45:07.674Z,5.38
2017-12-20T00:45:48.240Z,5.51
2017-12-20T00:46:28.802Z,5.46
2017-12-20T00:47:09.372Z,5.41
2017-12-20T00:47:49.940Z,5.38
2017-12-20T00:48:30.508Z,5.54
2017-12-20T00:49:11.085Z,5.47
2017-12-20T00:49:51.666Z,5.38
2017-12-20T00:50:32.266Z,5.36
2017-12-20T00:51:12.828Z,5.46
2017-12-20T00:51:53.389Z,5.41
2017-12-20T00:52:33.967Z,5.38
2017-12-20T00:53:14.554Z,5.46
2017-12-20T00:53:55.118Z,5.48
2017-12-20T00:54:35.723Z,5.39
2017-12-20T00:55:16.342Z,5.38
2017-12-20T00:55:56.917Z,5.5
2017-12-20T00:56:37.507Z,5.39
2017-12-20T00:57:18.071Z,5.33
2017-12-20T00:57:58.695Z,5.47
2017-12-20T00:58:39.272Z,5.46
2017-12-20T00:59:19.880Z,5.44
2017-12-20T01:00:00.482Z,5.38
2017-12-20T01:00:41.058Z,5.39
2017-12-20T01:01:21.648Z,5.41
2017-12-20T01:02:02.221Z,5.41
2017-12-20T01:02:42.824Z,5.38
2017-12-20T01:03:23.436Z,5.36
2017-12-20T01:04:04.021Z,5.41
2017-12-20T01:04:44.596Z,5.44
2017-12-20T01:05:25.192Z,5.44
2017-12-20T01:06:05.772Z,5.35
2017-12-20T01:06:46.342Z,5.43
2017-12-20T01:07:26.908Z,5.41
2017-12-20T01:08:07.498Z,5.38
2017-12-20T01:08:48.075Z,5.36
2017-12-20T01:09:28.682Z,5.3
2017-12-20T01:10:09.235Z,5.26
2017-12-20T01:10:49.856Z,5.38
2017-12-20T01:11:30.443Z,5.36
2017-12-20T01:12:11.027Z,5.29
2017-12-20T01:12:51.601Z,5.32
2017-12-20T01:13:32.168Z,5.39
2017-12-20T01:14:12.762Z,5.3
2017-12-20T01:14:53.345Z,5.28
2017-12-20T01:15:33.918Z,5.33
2017-12-20T01:16:14.488Z,5.3
2017-12-20T01:16:55.057Z,5.33
2017-12-20T01:17:35.671Z,5.29
2017-12-20T01:18:16.275Z,5.32
2017-12-20T01:18:56.883Z,5.3
2017-12-20T01:19:37.443Z,5.29
2017-12-20T01:20:18.015Z,5.29
2017-12-20T01:20:58.614Z,5.26
2017-12-20T01:21:39.182Z,5.3
2017-12-20T01:22:19.756Z,5.33
2017-12-20T01:23:00.319Z,5.25
2017-12-20T01:23:40.895Z,5.32
2017-12-20T01:24:21.461Z,5.3
2017-12-20T01:25:02.050Z,5.36
2017-12-20T01:25:42.632Z,5.32
2017-12-20T01:26:23.201Z,5.28
2017-12-20T01:27:03.766Z,5.25
2017-12-20T01:27:44.327Z,5.3
2017-12-20T01:28:24.995Z,5.38
2017-12-20T01:29:05.580Z,5.3
2017-12-20T01:29:46.156Z,5.3
2017-12-20T01:30:26.756Z,5.32
2017-12-20T01:31:07.351Z,5.41
2017-12-20T01:31:47.909Z,5.28
2017-12-20T01:32:28.502Z,5.3
2017-12-20T01:33:09.067Z,5.32
2017-12-20T01:33:49.639Z,5.32
2017-12-20T01:34:30.204Z,5.26
2017-12-20T01:35:10.765Z,5.29
2017-12-20T01:35:51.331Z,5.21
2017-12-20T01:36:31.912Z,5.28
2017-12-20T01:37:12.520Z,5.23
2017-12-20T01:37:57.015Z,5.28
2017-12-20T01:38:37.593Z,5.23
2017-12-20T01:39:18.173Z,5.28
2017-12-20T01:39:58.785Z,5.25
2017-12-20T01:40:39.354Z,5.25
2017-12-20T01:41:19.926Z,5.23
2017-12-20T01:42:00.493Z,5.23
2017-12-20T01:42:41.076Z,5.21
2017-12-20T01:43:21.633Z,5.18
2017-12-20T01:44:02.211Z,5.23
2017-12-20T01:44:42.792Z,5.26
2017-12-20T01:45:23.370Z,5.28
2017-12-20T01:46:03.966Z,5.25
2017-12-20T01:46:44.541Z,5.23
2017-12-20T01:47:25.123Z,5.23
2017-12-20T01:48:05.688Z,5.23
2017-12-20T01:48:46.267Z,5.12
2017-12-20T01:49:26.887Z,5.18
2017-12-20T01:50:07.451Z,5.05
2017-12-20T01:50:48.054Z,5.04
2017-12-20T01:51:28.627Z,5.08
2017-12-20T01:52:09.204Z,5.08
2017-12-20T01:52:49.776Z,5.1
2017-12-20T01:53:30.367Z,5.02
2017-12-20T01:54:10.952Z,5.08
2017-12-20T01:54:51.531Z,5.1
2017-12-20T01:55:32.097Z,5.1
2017-12-20T01:56:12.667Z,5.1
2017-12-20T01:56:53.264Z,5.14
2017-12-20T01:57:33.810Z,5.02
2017-12-20T01:58:14.386Z,5.07
2017-12-20T01:58:54.968Z,5.14
2017-12-20T01:59:35.573Z,5.17
2017-12-20T02:00:16.141Z,5.08
2017-12-20T02:00:56.714Z,5.23
2017-12-20T02:01:37.275Z,5.15
2017-12-20T02:02:17.855Z,5.18
2017-12-20T02:02:58.418Z,5.17
2017-12-20T02:03:39.013Z,5.11
2017-12-20T02:04:19.569Z,5.15
2017-12-20T02:05:00.146Z,5.15
2017-12-20T02:05:40.715Z,5.14
2017-12-20T02:06:21.304Z,5.08
2017-12-20T02:07:01.878Z,5.08
2017-12-20T02:07:42.468Z,5.05
2017-12-20T02:08:23.044Z,5.08
2017-12-20T02:09:03.633Z,5.14
2017-12-20T02:09:44.208Z,5.1
2017-12-20T02:10:24.776Z,5.18
2017-12-20T02:11:05.370Z,5.14
2017-12-20T02:11:45.919Z,5.14
2017-12-20T02:12:26.494Z,5.02
2017-12-20T02:13:07.059Z,5.08
2017-12-20T02:13:47.678Z,5.11
2017-12-20T02:14:28.251Z,5.04
2017-12-20T02:15:08.835Z,5.17
2017-12-20T02:15:49.407Z,5.12
2017-12-20T02:16:29.976Z,5.14
2017-12-20T02:17:10.548Z,5.15
2017-12-20T02:17:51.112Z,5.17
2017-12-20T02:18:31.737Z,5.1
2017-12-20T02:19:12.311Z,5.17
2017-12-20T02:19:52.874Z,5.12
2017-12-20T02:20:33.446Z,5.12
2017-12-20T02:21:14.043Z,5.15
2017-12-20T02:21:54.595Z,5.25
2017-12-20T02:22:35.144Z,5.28
2017-12-20T02:23:15.754Z,5.26
2017-12-20T02:23:56.325Z,5.12
2017-12-20T02:24:36.890Z,5.18
2017-12-20T02:25:17.468Z,5.17
2017-12-20T02:25:58.047Z,5.17
2017-12-20T02:26:38.608Z,5.21
2017-12-20T02:27:19.232Z,5.29
2017-12-20T02:27:59.753Z,5.28
2017-12-20T02:28:40.301Z,5.23
2017-12-20T02:29:20.867Z,5.2
2017-12-20T02:30:01.441Z,5.15
2017-12-20T02:30:42.025Z,5.26
2017-12-20T02:31:22.580Z,5.14
2017-12-20T02:32:03.142Z,5.21
2017-12-20T02:32:43.718Z,5.2
2017-12-20T02:33:24.290Z,5.21
2017-12-20T02:34:04.857Z,5.28
2017-12-20T02:34:45.427Z,5.21
2017-12-20T02:35:26.005Z,5.23
2017-12-20T02:36:06.574Z,5.18
2017-12-20T02:36:47.130Z,5.26
2017-12-20T02:37:27.702Z,5.29
2017-12-20T02:38:08.265Z,5.28
2017-12-20T02:38:48.824Z,5.35
2017-12-20T02:39:29.390Z,5.25
2017-12-20T02:40:09.951Z,5.25
2017-12-20T02:40:50.520Z,5.25
2017-12-20T02:41:31.091Z,5.21
2017-12-20T02:42:11.669Z,5.18
2017-12-20T02:42:52.238Z,5.29
2017-12-20T02:43:32.833Z,5.26
2017-12-20T02:44:13.401Z,5.26
2017-12-20T02:44:53.999Z,5.18
2017-12-20T02:45:34.575Z,5.25
2017-12-20T02:46:15.156Z,5.26
2017-12-20T02:46:55.728Z,5.26
2017-12-20T02:47:36.296Z,5.28
2017-12-20T02:48:16.894Z,5.25
2017-12-20T02:48:57.431Z,5.23
2017-12-20T02:49:38.004Z,5.29
2017-12-20T02:50:18.585Z,5.25
2017-12-20T02:50:59.149Z,5.26
2017-12-20T02:51:39.735Z,5.25
2017-12-20T02:52:20.300Z,5.28
2017-12-20T02:53:00.887Z,5.18
2017-12-20T02:53:41.484Z,5.29
2017-12-20T02:54:22.055Z,5.25
2017-12-20T02:55:02.627Z,5.28
2017-12-20T02:55:43.185Z,5.21
2017-12-20T02:56:23.736Z,5.17
2017-12-20T02:57:04.306Z,5.21
2017-12-20T02:57:44.882Z,5.2
2017-12-20T02:58:25.458Z,5.21
2017-12-20T02:59:06.023Z,5.21
2017-12-20T02:59:46.586Z,5.26
2017-12-20T03:00:27.158Z,5.2
2017-12-20T03:01:07.749Z,5.18
2017-12-20T03:01:48.319Z,5.17
2017-12-20T03:02:28.887Z,5.2
2017-12-20T03:03:09.474Z,5.17
2017-12-20T03:03:50.049Z,5.21
2017-12-20T03:04:30.611Z,5.18
2017-12-20T03:05:11.173Z,5.32
2017-12-20T03:05:51.729Z,5.21
2017-12-20T03:06:32.319Z,5.3
2017-12-20T03:07:12.887Z,5.26
2017-12-20T03:07:53.457Z,5.25
2017-12-20T03:08:34.032Z,5.25
2017-12-20T03:09:14.660Z,5.25
2017-12-20T03:09:55.246Z,5.26
2017-12-20T03:10:35.828Z,5.18
2017-12-20T03:11:16.422Z,5.25
2017-12-20T03:11:57.021Z,5.21
2017-12-20T03:12:37.581Z,5.26
2017-12-20T03:13:18.155Z,5.26
2017-12-20T03:13:58.724Z,5.25
2017-12-20T03:14:39.302Z,5.17
2017-12-20T03:15:19.957Z,5.18
2017-12-20T03:16:00.539Z,5.21
2017-12-20T03:16:41.110Z,5.25
2017-12-20T03:17:21.684Z,5.2
2017-12-20T03:18:02.238Z,5.15
2017-12-20T03:18:42.818Z,5.2
2017-12-20T03:19:23.373Z,5.18
2017-12-20T03:20:03.961Z,5.2
2017-12-20T03:20:44.534Z,5.23
2017-12-20T03:21:25.095Z,5.18
2017-12-20T03:22:05.662Z,5.14
2017-12-20T03:22:46.255Z,5.18
2017-12-20T03:23:26.817Z,5.15
2017-12-20T03:24:07.381Z,5.15
2017-12-20T03:24:47.990Z,5.17
2017-12-20T03:25:28.554Z,5.18
2017-12-20T03:26:09.135Z,5.1
2017-12-20T03:26:49.696Z,5.07
2017-12-20T03:27:30.266Z,5.04
2017-12-20T03:28:10.845Z,5.12
2017-12-20T03:28:51.429Z,5.14
2017-12-20T03:29:32.029Z,5.08
2017-12-20T03:30:12.613Z,5.1
2017-12-20T03:30:53.186Z,5.02
2017-12-20T03:31:33.744Z,5.04
2017-12-20T03:32:14.310Z,5.11
2017-12-20T03:32:54.886Z,4.99
2017-12-20T03:33:35.456Z,5
2017-12-20T03:34:16.066Z,5
2017-12-20T03:34:56.612Z,5.05
2017-12-20T03:35:37.182Z,5
2017-12-20T03:36:17.758Z,5
2017-12-20T03:36:58.344Z,4.97
2017-12-20T03:37:38.909Z,5.05
2017-12-20T03:38:19.488Z,4.97
2017-12-20T03:39:00.098Z,5.04
2017-12-20T03:39:40.721Z,5.04
2017-12-20T03:40:21.292Z,5.04
2017-12-20T03:41:01.853Z,5
2017-12-20T03:41:42.452Z,5.02
2017-12-20T03:42:23.011Z,5.1
2017-12-20T03:43:03.619Z,5
2017-12-20T03:43:44.170Z,4.97
2017-12-20T03:44:24.753Z,5.04
2017-12-20T03:45:05.334Z,4.99
2017-12-20T03:45:45.914Z,5.05
2017-12-20T03:46:26.455Z,5.02
2017-12-20T03:47:07.028Z,5.02
2017-12-20T03:47:47.582Z,5.05
2017-12-20T03:48:28.150Z,5.05
2017-12-20T03:49:08.733Z,4.97
2017-12-20T03:49:49.330Z,5.1
2017-12-20T03:50:29.903Z,5.07
2017-12-20T03:51:10.461Z,5.05
2017-12-20T03:51:51.033Z,4.99
2017-12-20T03:52:31.591Z,5.07
2017-12-20T03:53:12.192Z,5.05
2017-12-20T03:53:52.759Z,5.05
2017-12-20T03:54:33.338Z,5
2017-12-20T03:55:13.912Z,5.04
2017-12-20T03:55:54.493Z,4.92
2017-12-20T03:56:35.071Z,5.02
2017-12-20T03:57:15.673Z,5.02
2017-12-20T03:57:56.266Z,4.93
2017-12-20T03:58:36.889Z,5
2017-12-20T03:59:17.471Z,4.96
2017-12-20T03:59:58.053Z,4.99
2017-12-20T04:00:38.617Z,5.04
2017-12-20T04:01:19.193Z,5.04
2017-12-20T04:01:59.761Z,5.07
2017-12-20T04:02:40.332Z,5.07
2017-12-20T04:03:20.915Z,5
2017-12-20T04:04:01.524Z,4.99
2017-12-20T04:04:42.081Z,5.02
2017-12-20T04:05:22.682Z,5.04
2017-12-20T04:06:03.245Z,5.05
2017-12-20T04:06:43.790Z,4.92
2017-12-20T04:07:24.379Z,4.92
2017-12-20T04:08:04.954Z,4.9
2017-12-20T04:08:45.523Z,4.96
2017-12-20T04:09:26.081Z,4.93
2017-12-20T04:10:06.648Z,4.92
2017-12-20T04:10:47.208Z,4.99
2017-12-20T04:11:27.770Z,5.07
2017-12-20T04:12:08.337Z,4.99
2017-12-20T04:12:48.922Z,5.02
2017-12-20T04:13:29.516Z,5.07
2017-12-20T04:14:10.088Z,5.04
2017-12-20T04:14:50.684Z,5.07
2017-12-20T04:15:31.242Z,5
2017-12-20T04:16:11.814Z,5.04
2017-12-20T04:16:52.387Z,4.97
2017-12-20T04:17:32.951Z,4.97
2017-12-20T04:18:13.531Z,5.1
2017-12-20T04:18:54.099Z,5
2017-12-20T04:19:34.662Z,4.99
2017-12-20T04:20:15.240Z,5.04
2017-12-20T04:20:55.807Z,4.99
2017-12-20T04:21:36.347Z,5.04
2017-12-20T04:22:16.928Z,5.02
2017-12-20T04:22:57.481Z,4.99
2017-12-20T04:23:38.043Z,5
2017-12-20T04:24:18.610Z,5.02
2017-12-20T04:24:59.180Z,5
2017-12-20T04:25:39.750Z,5.11
2017-12-20T04:26:20.306Z,5.04
2017-12-20T04:27:00.897Z,4.99
2017-12-20T04:27:41.470Z,5.07
2017-12-20T04:28:22.107Z,5.02
2017-12-20T04:29:02.692Z,5.08
2017-12-20T04:29:43.288Z,5.15
2017-12-20T04:30:23.858Z,5
2017-12-20T04:31:04.535Z,4.99
2017-12-20T04:31:45.112Z,5.05
2017-12-20T04:32:25.673Z,4.96
2017-12-20T04:33:06.240Z,5.02
2017-12-20T04:33:46.816Z,5.04
2017-12-20T04:34:27.391Z,5
2017-12-20T04:35:07.971Z,4.99
2017-12-20T04:35:48.544Z,4.96
2017-12-20T04:36:29.114Z,5
2017-12-20T04:37:09.693Z,5
2017-12-20T04:37:50.257Z,4.99
2017-12-20T04:38:30.807Z,5.04
2017-12-20T04:39:11.387Z,5.04
2017-12-20T04:39:51.968Z,5.05
2017-12-20T04:40:32.532Z,4.97
2017-12-20T04:41:13.155Z,5.04
2017-12-20T04:41:53.759Z,5.05
2017-12-20T04:42:34.339Z,5.08
2017-12-20T04:43:14.930Z,5.1
2017-12-20T04:43:55.537Z,5.08
2017-12-20T04:44:36.065Z,5.08
2017-12-20T04:45:16.623Z,4.96
2017-12-20T04:45:57.191Z,4.96
2017-12-20T04:46:37.763Z,5.02
2017-12-20T04:47:18.360Z,5.04
2017-12-20T04:47:58.936Z,4.97
2017-12-20T04:48:39.487Z,5.02
2017-12-20T04:49:20.049Z,4.99
2017-12-20T04:50:00.629Z,5.04
2017-12-20T04:50:41.226Z,5.02
2017-12-20T04:51:21.799Z,5.04
2017-12-20T04:52:02.380Z,5
2017-12-20T04:52:42.949Z,5.08
2017-12-20T04:53:23.513Z,5.04
2017-12-20T04:54:04.066Z,5.1
2017-12-20T04:54:44.638Z,5.04
2017-12-20T04:55:25.205Z,5.05
2017-12-20T04:56:06.018Z,5.1
2017-12-20T04:56:46.589Z,5.02
2017-12-20T04:57:27.154Z,5.08
2017-12-20T04:58:07.722Z,5.02
2017-12-20T04:58:48.315Z,5.07
2017-12-20T04:59:28.891Z,5.07
2017-12-20T05:00:09.454Z,5.1
2017-12-20T05:00:50.023Z,5.05
2017-12-20T05:01:30.617Z,5.11
2017-12-20T05:02:11.177Z,5.05
2017-12-20T05:02:51.751Z,5.08
2017-12-20T05:03:32.312Z,5.08
2017-12-20T05:04:12.876Z,5.02
2017-12-20T05:04:53.503Z,5.08
2017-12-20T05:05:34.072Z,5.07
2017-12-20T05:06:14.655Z,5.11
2017-12-20T05:06:55.215Z,5.08
2017-12-20T05:07:35.779Z,5.11
2017-12-20T05:08:16.351Z,5.1
2017-12-20T05:08:56.913Z,5.14
2017-12-20T05:09:37.485Z,5.04
2017-12-20T05:10:18.084Z,5.1
2017-12-20T05:10:58.646Z,5.08
2017-12-20T05:11:39.215Z,5.04
2017-12-20T05:12:19.812Z,5.1
2017-12-20T05:13:00.379Z,5.04
2017-12-20T05:13:40.964Z,5.08
2017-12-20T05:14:21.545Z,5.21
2017-12-20T05:15:02.104Z,5.1
2017-12-20T05:15:43.981Z,5.15
2017-12-20T05:16:26.230Z,5.07
2017-12-20T05:17:06.821Z,5.11
2017-12-20T05:17:47.442Z,5.17
2017-12-20T05:18:28.022Z,5.15
2017-12-20T05:19:08.612Z,5.15
2017-12-20T05:19:49.181Z,5.18
2017-12-20T05:20:29.750Z,5.17
2017-12-20T05:21:10.323Z,5.18
2017-12-20T05:21:50.906Z,5.15
2017-12-20T05:22:31.470Z,5.23
2017-12-20T05:23:12.082Z,5.23
2017-12-20T05:23:52.661Z,5.2
2017-12-20T05:24:33.247Z,5.26
2017-12-20T05:25:13.805Z,5.17
2017-12-20T05:25:54.361Z,5.23
2017-12-20T05:26:34.931Z,5.23
2017-12-20T05:27:15.494Z,5.28
2017-12-20T05:27:56.087Z,5.2
2017-12-20T05:28:36.705Z,5.2
2017-12-20T05:29:17.281Z,5.23
2017-12-20T05:30:00.588Z,5.2
2017-12-20T05:30:41.200Z,5.28
2017-12-20T05:31:21.775Z,5.18
2017-12-20T05:32:02.337Z,5.26
2017-12-20T05:32:42.918Z,5.23
2017-12-20T05:33:23.485Z,5.18
2017-12-20T05:34:04.055Z,5.23
2017-12-20T05:34:44.691Z,5.29
2017-12-20T05:35:25.258Z,5.12
2017-12-20T05:36:05.828Z,5.15
2017-12-20T05:36:46.443Z,5.11
2017-12-20T05:37:27.038Z,5.26
2017-12-20T05:38:07.611Z,5.15
2017-12-20T05:38:48.171Z,5.17
2017-12-20T05:39:28.747Z,5.17
2017-12-20T05:40:09.318Z,5.14
2017-12-20T05:40:49.885Z,5.15
2017-12-20T05:41:30.461Z,5.17
2017-12-20T05:42:11.110Z,5.14
2017-12-20T05:42:51.681Z,5.15
2017-12-20T05:43:32.261Z,5.15
2017-12-20T05:44:12.829Z,5.14
2017-12-20T05:44:53.408Z,5.14
2017-12-20T05:45:33.995Z,5.21
2017-12-20T05:46:14.561Z,5.15
2017-12-20T05:46:55.134Z,5.14
2017-12-20T05:47:35.714Z,5.14
2017-12-20T05:48:16.267Z,5.12
2017-12-20T05:48:56.855Z,5.08
2017-12-20T05:49:37.411Z,5.15
2017-12-20T05:50:17.983Z,5.18
2017-12-20T05:50:58.576Z,5.17
2017-12-20T05:51:39.153Z,5.25
2017-12-20T05:52:19.733Z,5.14
2017-12-20T05:53:00.309Z,5.26
2017-12-20T05:53:40.942Z,5.15
2017-12-20T05:54:21.528Z,5.18
2017-12-20T05:55:02.113Z,5.17
2017-12-20T05:55:42.692Z,5.15
2017-12-20T05:56:23.278Z,5.26
2017-12-20T05:57:03.873Z,5.21
2017-12-20T05:57:44.431Z,5.2
2017-12-20T05:58:24.997Z,5.21
2017-12-20T05:59:05.602Z,5.29
2017-12-20T05:59:46.182Z,5.26
2017-12-20T06:00:26.748Z,5.21
2017-12-20T06:01:07.335Z,5.26
2017-12-20T06:01:47.892Z,5.28
2017-12-20T06:02:28.457Z,5.18
2017-12-20T06:03:09.050Z,5.23
2017-12-20T06:03:49.591Z,5.28
2017-12-20T06:04:30.174Z,5.3
2017-12-20T06:05:10.738Z,5.28
2017-12-20T06:05:51.293Z,5.21
2017-12-20T06:06:31.911Z,5.28
2017-12-20T06:07:12.481Z,5.28
2017-12-20T06:07:53.077Z,5.26
2017-12-20T06:08:33.646Z,5.21
2017-12-20T06:09:14.213Z,5.25
2017-12-20T06:09:54.782Z,5.21
2017-12-20T06:10:35.358Z,5.23
2017-12-20T06:11:15.931Z,5.26
2017-12-20T06:11:56.493Z,5.3
2017-12-20T06:12:37.066Z,5.25
2017-12-20T06:13:17.655Z,5.26
2017-12-20T06:13:58.243Z,5.23
2017-12-20T06:14:38.872Z,5.23
2017-12-20T06:15:19.433Z,5.25
2017-12-20T06:16:00.009Z,5.23
2017-12-20T06:16:40.567Z,5.3
2017-12-20T06:17:21.188Z,5.23
2017-12-20T06:18:01.758Z,5.25
2017-12-20T06:18:42.331Z,5.26
2017-12-20T06:19:22.928Z,5.2
2017-12-20T06:20:03.634Z,5.2
2017-12-20T06:20:44.196Z,5.15
2017-12-20T06:21:24.796Z,5.26
2017-12-20T06:22:05.353Z,5.23
2017-12-20T06:22:45.910Z,5.29
2017-12-20T06:23:26.475Z,5.25
2017-12-20T06:24:07.073Z,5.25
2017-12-20T06:24:47.639Z,5.28
2017-12-20T06:25:28.225Z,5.3
2017-12-20T06:26:08.793Z,5.29
2017-12-20T06:26:49.396Z,5.29
2017-12-20T06:27:30.217Z,5.25
2017-12-20T06:28:10.804Z,5.29
2017-12-20T06:28:51.368Z,5.32
2017-12-20T06:29:31.937Z,5.36
2017-12-20T06:30:12.512Z,5.29
2017-12-20T06:30:53.101Z,5.36
2017-12-20T06:31:33.686Z,5.29
2017-12-20T06:32:14.280Z,5.3
2017-12-20T06:32:54.858Z,5.29
2017-12-20T06:33:35.428Z,5.3
2017-12-20T06:34:15.976Z,5.32
2017-12-20T06:34:56.546Z,5.33
2017-12-20T06:35:37.111Z,5.28
2017-12-20T06:36:17.688Z,5.38
2017-12-20T06:36:58.282Z,5.33
2017-12-20T06:37:38.886Z,5.33
2017-12-20T06:38:19.461Z,5.3
2017-12-20T06:39:00.018Z,5.32
2017-12-20T06:39:40.593Z,5.35
2017-12-20T06:40:21.159Z,5.29
2017-12-20T06:41:01.740Z,5.33
2017-12-20T06:41:42.312Z,5.28
2017-12-20T06:42:22.879Z,5.36
2017-12-20T06:43:03.433Z,5.26
2017-12-20T06:43:44.020Z,5.33
2017-12-20T06:44:24.591Z,5.29
2017-12-20T06:45:05.172Z,5.3
2017-12-20T06:45:45.741Z,5.29
2017-12-20T06:46:26.300Z,5.35
2017-12-20T06:47:06.969Z,5.32
2017-12-20T06:47:47.530Z,5.26
2017-12-20T06:48:28.096Z,5.32
2017-12-20T06:49:08.673Z,5.32
2017-12-20T06:49:49.248Z,5.28
2017-12-20T06:50:29.831Z,5.35
2017-12-20T06:51:10.425Z,5.29
2017-12-20T06:51:50.997Z,5.29
2017-12-20T06:52:31.560Z,5.29
2017-12-20T06:53:12.140Z,5.23
2017-12-20T06:53:52.710Z,5.3
2017-12-20T06:54:33.286Z,5.28
2017-12-20T06:55:13.901Z,5.26
2017-12-20T06:55:54.472Z,5.28
2017-12-20T06:56:35.023Z,5.28
2017-12-20T06:57:15.624Z,5.3
2017-12-20T06:57:56.190Z,5.3
2017-12-20T06:58:36.752Z,5.38
2017-12-20T06:59:17.317Z,5.29
2017-12-20T06:59:57.885Z,5.32
2017-12-20T07:00:38.466Z,5.3
2017-12-20T07:01:19.036Z,5.29
2017-12-20T07:01:59.612Z,5.21
2017-12-20T07:02:40.193Z,5.32
2017-12-20T07:03:20.794Z,5.26
2017-12-20T07:04:01.377Z,5.29
2017-12-20T07:04:41.974Z,5.26
2017-12-20T07:05:22.537Z,5.3
2017-12-20T07:06:03.117Z,5.32
2017-12-20T07:06:43.805Z,5.29
2017-12-20T07:07:27.430Z,5.3
2017-12-20T07:08:08.015Z,5.29
2017-12-20T07:08:48.598Z,5.3
2017-12-20T07:09:29.169Z,5.3
2017-12-20T07:10:09.743Z,5.28
2017-12-20T07:10:50.322Z,5.3
2017-12-20T07:11:30.898Z,5.3
2017-12-20T07:12:11.501Z,5.3
2017-12-20T07:12:52.060Z,5.32
2017-12-20T07:13:32.657Z,5.21
2017-12-20T07:14:13.275Z,5.25
2017-12-20T07:14:53.894Z,5.26
2017-12-20T07:15:34.481Z,5.2
2017-12-20T07:16:15.061Z,5.2
2017-12-20T07:16:55.653Z,5.28
2017-12-20T07:17:36.239Z,5.29
2017-12-20T07:18:16.809Z,5.28
2017-12-20T07:18:57.407Z,5.21
2017-12-20T07:19:37.979Z,5.23
2017-12-20T07:20:18.544Z,5.15
2017-12-20T07:20:59.142Z,5.23
2017-12-20T07:21:39.717Z,5.28
2017-12-20T07:22:20.305Z,5.12
2017-12-20T07:23:00.868Z,5.25
2017-12-20T07:23:41.435Z,5.12
2017-12-20T07:24:22.003Z,5.12
2017-12-20T07:25:02.560Z,5.14
2017-12-20T07:25:43.136Z,5.17
2017-12-20T07:26:23.697Z,5.15
2017-12-20T07:27:04.274Z,5.15
2017-12-20T07:27:44.839Z,5.15
2017-12-20T07:28:25.422Z,5.12
2017-12-20T07:29:05.986Z,5.15
2017-12-20T07:29:46.562Z,5.14
2017-12-20T07:30:27.195Z,5.29
2017-12-20T07:31:07.766Z,5.14
2017-12-20T07:31:48.383Z,5.18
2017-12-20T07:32:28.950Z,5.2
2017-12-20T07:33:09.554Z,5.14
2017-12-20T07:33:50.154Z,5.11
2017-12-20T07:34:30.723Z,5.15
2017-12-20T07:35:11.301Z,5.04
2017-12-20T07:35:51.874Z,5.07
2017-12-20T07:36:32.484Z,5.11
2017-12-20T07:37:13.041Z,5.07
2017-12-20T07:37:53.653Z,5.08
2017-12-20T07:38:34.232Z,5.04
2017-12-20T07:39:14.860Z,5
2017-12-20T07:39:55.451Z,4.99
2017-12-20T07:40:36.014Z,4.89
2017-12-20T07:41:16.606Z,4.94
2017-12-20T07:41:57.243Z,4.96
2017-12-20T07:42:37.816Z,5.02
2017-12-20T07:43:18.382Z,4.93
2017-12-20T07:43:58.933Z,4.92
2017-12-20T07:44:39.523Z,4.93
2017-12-20T07:45:20.137Z,5
2017-12-20T07:46:00.709Z,4.92
2017-12-20T07:46:41.292Z,4.97
2017-12-20T07:47:22.019Z,5.04
2017-12-20T07:48:02.600Z,5
2017-12-20T07:48:43.150Z,4.97
2017-12-20T07:49:23.726Z,5.07
2017-12-20T07:50:04.314Z,5
2017-12-20T07:50:44.892Z,4.97
2017-12-20T07:51:25.530Z,4.97
2017-12-20T07:52:06.141Z,5.12
2017-12-20T07:52:46.693Z,5.1
2017-12-20T07:53:27.253Z,5.08
2017-12-20T07:54:07.837Z,5
2017-12-20T07:54:48.392Z,5
2017-12-20T07:55:28.967Z,5
2017-12-20T07:56:09.540Z,5.05
2017-12-20T07:56:50.151Z,4.99
2017-12-20T07:57:30.717Z,5.07
2017-12-20T07:58:11.350Z,4.94
2017-12-20T07:58:51.920Z,4.93
2017-12-20T07:59:32.495Z,4.94
2017-12-20T08:00:13.046Z,4.92
2017-12-20T08:00:53.616Z,5.04
2017-12-20T08:01:34.190Z,4.92
2017-12-20T08:02:15.018Z,5.02
2017-12-20T08:02:55.800Z,5.04
2017-12-20T08:03:36.470Z,4.96
2017-12-20T08:04:17.045Z,4.97
2017-12-20T08:04:57.649Z,5.02
2017-12-20T08:05:38.220Z,4.99
2017-12-20T08:06:18.820Z,5.04
2017-12-20T08:06:59.382Z,5.1
2017-12-20T08:07:39.958Z,5.12
2017-12-20T08:08:20.550Z,5.05
2017-12-20T08:09:01.118Z,5.04
2017-12-20T08:09:41.732Z,5.02
2017-12-20T08:10:22.325Z,5.04
2017-12-20T08:11:02.892Z,4.93
2017-12-20T08:11:43.493Z,4.93
2017-12-20T08:12:24.053Z,4.92
2017-12-20T08:13:04.738Z,5.05
2017-12-20T08:13:45.325Z,4.99
2017-12-20T08:14:25.888Z,4.9
2017-12-20T08:15:06.457Z,4.94
2017-12-20T08:15:47.011Z,4.94
2017-12-20T08:16:27.588Z,5.02
2017-12-20T08:17:08.158Z,5.07
2017-12-20T08:17:48.728Z,5.02
2017-12-20T08:18:29.280Z,5.08
2017-12-20T08:19:09.867Z,5.04
2017-12-20T08:19:50.636Z,5.07
2017-12-20T08:20:31.226Z,5.08
2017-12-20T08:21:11.794Z,5.14
2017-12-20T08:21:52.362Z,5.07
2017-12-20T08:22:33.010Z,5.11
2017-12-20T08:23:13.603Z,5.04
2017-12-20T08:23:54.177Z,5.12
2017-12-20T08:24:34.747Z,5.15
2017-12-20T08:25:15.338Z,5.17
2017-12-20T08:25:55.908Z,5.29
2017-12-20T08:26:36.524Z,5.25
2017-12-20T08:27:17.092Z,5.23
2017-12-20T08:27:57.677Z,5.18
2017-12-20T08:28:38.264Z,5.21
2017-12-20T08:29:18.866Z,5.25
2017-12-20T08:29:59.437Z,5.25
2017-12-20T08:30:40.077Z,5.23
2017-12-20T08:31:20.630Z,5.23
2017-12-20T08:32:01.208Z,5.26
2017-12-20T08:32:41.797Z,5.21
2017-12-20T08:33:22.375Z,5.15
2017-12-20T08:34:02.948Z,5.12
2017-12-20T08:34:43.509Z,5.05
2017-12-20T08:35:24.084Z,5.18
2017-12-20T08:36:04.641Z,5.11
2017-12-20T08:36:45.202Z,5.07
2017-12-20T08:37:25.787Z,5.07
2017-12-20T08:38:06.368Z,5.08
2017-12-20T08:38:46.941Z,5.07
2017-12-20T08:39:27.511Z,5
2017-12-20T08:40:08.089Z,4.96
2017-12-20T08:40:48.674Z,5.04
2017-12-20T08:41:29.256Z,5.04
2017-12-20T08:42:09.815Z,4.99
2017-12-20T08:42:50.393Z,4.97
2017-12-20T08:43:30.956Z,5
2017-12-20T08:44:11.578Z,5.02
2017-12-20T08:44:52.140Z,5
2017-12-20T08:45:32.736Z,4.96
2017-12-20T08:46:13.313Z,4.97
2017-12-20T08:46:53.874Z,5.05
2017-12-20T08:47:34.459Z,5
2017-12-20T08:48:15.021Z,5.04
2017-12-20T08:48:55.590Z,5
2017-12-20T08:49:36.155Z,5.04
2017-12-20T08:50:16.721Z,5
2017-12-20T08:50:57.280Z,4.99
2017-12-20T08:51:37.857Z,5.08
2017-12-20T08:52:18.443Z,5.02
2017-12-20T08:52:58.995Z,5.08
2017-12-20T08:53:39.550Z,5.11
2017-12-20T08:54:20.133Z,5.1
2017-12-20T08:55:00.729Z,5.08
2017-12-20T08:55:41.291Z,5.18
2017-12-20T08:56:21.858Z,5.12
2017-12-20T08:57:02.434Z,5.21
2017-12-20T08:57:43.007Z,5.26
2017-12-20T08:58:23.571Z,5.14
2017-12-20T08:59:04.134Z,5.14
2017-12-20T08:59:44.699Z,5.2
2017-12-20T09:00:25.254Z,5.2
2017-12-20T09:01:05.880Z,5.23
2017-12-20T09:01:46.453Z,5.28
2017-12-20T09:02:27.017Z,5.28
2017-12-20T09:03:07.611Z,5.3
2017-12-20T09:03:48.188Z,5.26
2017-12-20T09:04:28.751Z,5.3